createdAt,value
2019-03-22T00:00:11.315Z,61.73
2019-03-22T00:02:39.833Z,65.50
2019-03-22T00:05:08.429Z,61.57
2019-03-22T00:07:37.040Z,62.23
2019-03-22T00:10:06.458Z,63.03
2019-03-22T00:12:34.960Z,64.27
2019-03-22T00:15:05.594Z,65.47
2019-03-22T00:17:34.165Z,66.40
2019-03-22T00:20:03.675Z,65.43
2019-03-22T00:22:32.246Z,67.50
2019-03-22T00:25:00.834Z,62.30
2019-03-22T00:27:29.393Z,60.93
2019-03-22T00:29:58.051Z,65.87
2019-03-22T00:32:26.566Z,63.73
2019-03-22T00:34:55.164Z,63.73
2019-03-22T00:37:23.733Z,64.77
2019-03-22T00:39:52.326Z,64.83
2019-03-22T00:42:20.895Z,64.73
2019-03-22T00:44:49.478Z,62.47
2019-03-22T00:47:17.981Z,61.73
2019-03-22T00:49:46.566Z,65.17
2019-03-22T00:52:15.129Z,65.50
2019-03-22T00:54:43.643Z,64.90
2019-03-22T00:57:12.211Z,65.73
2019-03-22T00:59:40.799Z,60.00
2019-03-22T01:02:09.419Z,66.37
2019-03-22T01:04:38.007Z,64.43
2019-03-22T01:07:06.650Z,61.73
2019-03-22T01:09:35.251Z,60.77
2019-03-22T01:12:03.752Z,66.10
2019-03-22T01:14:32.317Z,65.93
2019-03-22T01:17:00.901Z,64.23
2019-03-22T01:19:29.406Z,65.67
2019-03-22T01:21:57.986Z,66.10
2019-03-22T01:24:26.559Z,70.17
2019-03-22T01:26:55.070Z,70.43
2019-03-22T01:29:23.648Z,65.53
2019-03-22T01:31:52.511Z,68.43
2019-03-22T01:34:21.082Z,67.67
2019-03-22T01:36:49.669Z,71.27
2019-03-22T01:39:18.298Z,71.83
2019-03-22T01:41:46.911Z,73.57
2019-03-22T01:44:15.478Z,70.87
2019-03-22T01:46:44.004Z,68.57
2019-03-22T01:49:12.576Z,69.07
2019-03-22T01:51:41.168Z,68.80
2019-03-22T01:54:09.729Z,62.20
2019-03-22T01:56:38.313Z,65.90
2019-03-22T01:59:06.810Z,65.80
2019-03-22T02:01:35.401Z,61.47
2019-03-22T02:04:03.975Z,63.73
2019-03-22T02:06:32.593Z,60.63
2019-03-22T02:09:01.145Z,60.60
2019-03-22T02:11:29.723Z,58.07
2019-03-22T02:13:58.299Z,61.23
2019-03-22T02:16:26.891Z,54.43
2019-03-22T02:18:55.468Z,54.47
2019-03-22T02:21:24.227Z,60.87
2019-03-22T02:23:52.799Z,59.03
2019-03-22T02:26:21.390Z,61.87
2019-03-22T02:28:49.962Z,58.50
2019-03-22T02:31:18.548Z,58.37
2019-03-22T02:33:47.119Z,58.43
2019-03-22T02:36:15.702Z,59.67
2019-03-22T02:38:44.211Z,62.17
2019-03-22T02:41:12.797Z,58.63
2019-03-22T02:43:41.359Z,58.30
2019-03-22T02:46:09.954Z,57.30
2019-03-22T02:48:38.531Z,54.53
2019-03-22T02:51:07.122Z,54.40
2019-03-22T02:53:35.686Z,52.77
2019-03-22T02:56:04.390Z,54.30
2019-03-22T02:58:33.006Z,58.17
2019-03-22T03:01:01.599Z,58.20
2019-03-22T03:03:30.171Z,60.47
2019-03-22T03:05:58.767Z,59.40
2019-03-22T03:08:27.335Z,63.43
2019-03-22T03:10:55.915Z,58.27
2019-03-22T03:13:24.512Z,57.33
2019-03-22T03:15:53.081Z,55.03
2019-03-22T03:18:21.657Z,54.20
2019-03-22T03:20:50.315Z,47.27
2019-03-22T03:23:18.897Z,46.63
2019-03-22T03:25:47.397Z,44.53
2019-03-22T03:28:16.001Z,43.57
2019-03-22T03:30:44.564Z,45.70
2019-03-22T03:33:13.151Z,42.43
2019-03-22T03:35:41.711Z,40.57
2019-03-22T03:38:10.297Z,40.97
2019-03-22T03:40:38.866Z,39.50
2019-03-22T03:43:07.450Z,39.90
2019-03-22T03:45:36.906Z,41.07
2019-03-22T03:48:08.542Z,42.13
2019-03-22T03:50:37.254Z,43.17
2019-03-22T03:53:06.268Z,44.53
2019-03-22T03:55:35.013Z,45.30
2019-03-22T03:58:03.831Z,46.00
2019-03-22T04:00:32.563Z,47.37
2019-03-22T04:03:01.127Z,49.80
2019-03-22T04:05:29.848Z,46.07
2019-03-22T04:07:58.445Z,43.53
2019-03-22T04:10:27.007Z,42.20
2019-03-22T04:12:55.773Z,37.60
2019-03-22T04:15:24.588Z,43.97
2019-03-22T04:17:53.167Z,40.80
2019-03-22T04:20:21.747Z,40.50
2019-03-22T04:22:50.336Z,38.47
2019-03-22T04:25:18.918Z,39.87
2019-03-22T04:27:47.500Z,42.00
2019-03-22T04:30:16.301Z,40.43
2019-03-22T04:32:44.896Z,39.40
2019-03-22T04:35:13.606Z,41.73
2019-03-22T04:37:42.255Z,37.37
2019-03-22T04:40:16.622Z,38.60
2019-03-22T04:42:45.144Z,38.10
2019-03-22T04:45:13.846Z,38.23
2019-03-22T04:47:45.874Z,33.50
2019-03-22T04:50:13.458Z,32.97
2019-03-22T04:52:42.382Z,34.33
2019-03-22T04:55:11.894Z,33.87
2019-03-22T04:57:41.764Z,33.77
2019-03-22T05:00:10.946Z,34.90
2019-03-22T05:02:41.098Z,32.33
2019-03-22T05:05:11.805Z,32.77
2019-03-22T05:07:41.431Z,32.83
2019-03-22T05:10:11.809Z,31.70
2019-03-22T05:12:41.342Z,31.30
2019-03-22T05:15:13.010Z,31.87
2019-03-22T05:17:42.653Z,31.70
2019-03-22T05:20:12.271Z,32.57
2019-03-22T05:22:41.889Z,30.90
2019-03-22T05:25:11.531Z,31.40
2019-03-22T05:27:42.458Z,33.07
2019-03-22T05:30:30.293Z,33.57
2019-03-22T05:32:58.875Z,34.10
2019-03-22T05:35:27.485Z,32.87
2019-03-22T05:37:56.020Z,34.03
2019-03-22T05:40:24.754Z,33.73
2019-03-22T05:42:53.338Z,32.73
2019-03-22T05:45:22.018Z,34.10
2019-03-22T05:47:50.610Z,33.53
2019-03-22T05:50:19.102Z,32.93
2019-03-22T05:52:47.693Z,33.63
2019-03-22T05:55:16.273Z,34.80
2019-03-22T05:57:44.931Z,34.87
2019-03-22T06:00:15.232Z,36.83
2019-03-22T06:02:43.813Z,37.40
2019-03-22T06:05:12.482Z,39.63
2019-03-22T06:07:40.998Z,39.27
2019-03-22T06:10:09.643Z,39.50
2019-03-22T06:12:38.248Z,42.00
2019-03-22T06:15:08.064Z,41.37
2019-03-22T06:17:36.662Z,40.37
2019-03-22T06:20:06.961Z,43.47
2019-03-22T06:22:35.455Z,39.77
2019-03-22T06:25:05.380Z,44.37
2019-03-22T06:27:34.098Z,40.67
2019-03-22T06:30:02.687Z,45.77
2019-03-22T06:32:31.258Z,43.53
2019-03-22T06:34:59.856Z,43.03
2019-03-22T06:37:28.430Z,46.00
2019-03-22T06:39:57.053Z,41.10
2019-03-22T06:42:25.546Z,42.53
2019-03-22T06:44:54.130Z,41.70
2019-03-22T06:47:22.704Z,42.47
2019-03-22T06:49:51.300Z,43.43
2019-03-22T06:52:19.866Z,43.87
2019-03-22T06:54:48.454Z,42.83
2019-03-22T06:57:16.956Z,41.60
2019-03-22T06:59:45.620Z,44.80
2019-03-22T07:02:14.190Z,42.43
2019-03-22T07:04:42.716Z,41.97
2019-03-22T07:07:11.298Z,38.83
2019-03-22T07:09:39.870Z,36.60
2019-03-22T07:12:08.450Z,40.73
2019-03-22T07:14:37.033Z,41.47
2019-03-22T07:17:05.600Z,39.23
2019-03-22T07:19:34.201Z,42.17
2019-03-22T07:22:02.843Z,41.23
2019-03-22T07:24:31.431Z,44.27
2019-03-22T07:27:00.007Z,41.90
2019-03-22T07:29:28.582Z,38.17
2019-03-22T07:31:57.152Z,36.50
2019-03-22T07:34:25.806Z,37.97
2019-03-22T07:36:54.379Z,37.53
2019-03-22T07:39:22.970Z,40.13
2019-03-22T07:41:51.529Z,41.93
2019-03-22T07:44:20.118Z,44.63
2019-03-22T07:46:48.614Z,45.33
2019-03-22T07:49:17.199Z,46.70
2019-03-22T07:51:45.766Z,46.23
2019-03-22T07:54:14.354Z,43.43
2019-03-22T07:56:42.916Z,43.53
2019-03-22T07:59:11.514Z,45.07
2019-03-22T08:01:40.074Z,45.97
2019-03-22T08:04:08.660Z,42.83
2019-03-22T08:06:37.226Z,47.50
2019-03-22T08:09:08.429Z,44.73
2019-03-22T08:11:37.835Z,46.67
2019-03-22T08:14:06.521Z,49.30
2019-03-22T08:16:35.055Z,47.33
2019-03-22T08:19:03.652Z,47.77
2019-03-22T08:21:32.220Z,47.23
2019-03-22T08:24:00.814Z,50.43
2019-03-22T08:26:29.383Z,50.80
2019-03-22T08:28:57.972Z,49.93
2019-03-22T08:31:26.556Z,49.90
2019-03-22T08:33:55.125Z,48.53
2019-03-22T08:36:23.727Z,47.93
2019-03-22T08:38:52.327Z,44.13
2019-03-22T08:41:23.675Z,45.37
2019-03-22T08:43:51.122Z,45.90
2019-03-22T08:46:19.726Z,41.33
2019-03-22T08:48:48.360Z,42.20
2019-03-22T08:51:16.973Z,38.73
2019-03-22T08:53:55.117Z,39.83
2019-03-22T08:56:15.813Z,39.63
2019-03-22T08:58:44.342Z,35.80
2019-03-22T09:01:12.880Z,36.00
2019-03-22T09:03:41.455Z,34.33
2019-03-22T09:06:10.089Z,33.43
2019-03-22T09:08:38.654Z,33.70
2019-03-22T09:11:07.313Z,34.80
2019-03-22T09:13:35.815Z,35.33
2019-03-22T09:16:04.528Z,35.37
2019-03-22T09:18:33.046Z,34.57
2019-03-22T09:21:01.596Z,30.57
2019-03-22T09:23:30.151Z,30.97
2019-03-22T09:25:58.762Z,31.97
2019-03-22T09:28:27.346Z,32.20
2019-03-22T09:30:55.907Z,32.17
2019-03-22T09:33:24.482Z,31.57
2019-03-22T09:35:53.007Z,31.63
2019-03-22T09:38:21.609Z,31.57
2019-03-22T09:40:50.196Z,34.80
2019-03-22T09:43:18.816Z,32.40
2019-03-22T09:45:47.501Z,29.93
2019-03-22T09:48:16.022Z,31.10
2019-03-22T09:50:44.663Z,29.90
2019-03-22T09:53:13.199Z,29.07
2019-03-22T09:55:41.766Z,28.63
2019-03-22T09:58:10.408Z,27.80
2019-03-22T10:00:39.018Z,26.37
2019-03-22T10:03:07.664Z,25.27
2019-03-22T10:05:36.262Z,24.43
2019-03-22T10:08:05.182Z,24.43
2019-03-22T10:10:33.786Z,24.13
2019-03-22T10:13:02.418Z,23.87
2019-03-22T10:15:31.032Z,23.27
2019-03-22T10:17:59.651Z,21.80
2019-03-22T10:20:28.253Z,21.60
2019-03-22T10:22:56.763Z,21.63
2019-03-22T10:25:25.468Z,21.70
2019-03-22T10:27:54.040Z,21.93
2019-03-22T10:30:22.600Z,22.60
2019-03-22T10:32:51.262Z,20.97
2019-03-22T10:35:26.011Z,17.73
2019-03-22T10:37:50.168Z,18.63
2019-03-22T10:40:18.789Z,19.23
2019-03-22T10:42:47.370Z,20.50
2019-03-22T10:45:17.203Z,19.57
2019-03-22T10:47:45.810Z,18.17
2019-03-22T10:50:14.408Z,17.70
2019-03-22T10:52:42.953Z,17.10
2019-03-22T10:55:28.447Z,17.30
2019-03-22T10:57:41.914Z,17.03
2019-03-22T11:00:17.645Z,16.67
2019-03-22T11:02:46.382Z,17.90
2019-03-22T11:05:15.921Z,14.77
2019-03-22T11:07:44.514Z,14.00
2019-03-22T11:10:14.423Z,14.67
2019-03-22T11:12:43.058Z,14.47
2019-03-22T11:15:13.364Z,13.03
2019-03-22T11:17:43.475Z,15.77
2019-03-22T11:20:16.786Z,11.53
2019-03-22T11:22:45.435Z,10.07
2019-03-22T11:25:14.167Z,8.40
2019-03-22T11:27:42.807Z,9.43
2019-03-22T11:30:16.796Z,9.40
2019-03-22T11:32:45.447Z,9.50
2019-03-22T11:35:15.624Z,10.90
2019-03-22T11:37:44.247Z,10.47
2019-03-22T11:40:17.990Z,8.60
2019-03-22T11:42:46.645Z,7.57
2019-03-22T11:45:18.069Z,8.73
2019-03-22T11:47:46.706Z,9.83
2019-03-22T11:50:15.448Z,8.33
2019-03-22T11:52:44.146Z,11.07
2019-03-22T11:55:14.265Z,11.33
2019-03-22T11:57:42.995Z,11.03
2019-03-22T12:00:17.641Z,10.73
2019-03-22T12:02:46.278Z,9.27
2019-03-22T12:05:16.081Z,9.57
2019-03-22T12:07:44.666Z,10.03
2019-03-22T12:10:18.255Z,9.23
2019-03-22T12:12:48.418Z,8.67
2019-03-22T12:15:19.034Z,9.10
2019-03-22T12:17:47.633Z,9.17
2019-03-22T12:20:19.563Z,8.60
2019-03-22T12:22:48.232Z,9.33
2019-03-22T12:25:19.610Z,9.77
2019-03-22T12:27:48.501Z,10.10
2019-03-22T12:30:18.212Z,11.17
2019-03-22T12:32:46.940Z,10.83
2019-03-22T12:35:16.646Z,10.30
2019-03-22T12:37:45.570Z,9.57
2019-03-22T12:40:21.836Z,9.80
2019-03-22T12:42:50.590Z,9.00
2019-03-22T12:45:22.231Z,9.27
2019-03-22T12:47:50.903Z,8.03
2019-03-22T12:50:20.422Z,8.40
2019-03-22T12:52:49.071Z,7.60
2019-03-22T12:55:17.878Z,8.50
2019-03-22T12:57:46.601Z,8.27
2019-03-22T13:00:22.630Z,7.47
2019-03-22T13:02:51.517Z,8.63
2019-03-22T13:05:20.542Z,8.23
2019-03-22T13:07:49.213Z,7.07
2019-03-22T13:10:26.664Z,7.50
2019-03-22T13:12:55.592Z,8.17
2019-03-22T13:15:24.291Z,7.63
2019-03-22T13:17:52.953Z,8.97
2019-03-22T13:20:21.522Z,7.23
2019-03-22T13:22:50.187Z,6.63
2019-03-22T13:25:21.002Z,7.37
2019-03-22T13:27:49.382Z,7.03
2019-03-22T13:30:33.086Z,7.00
2019-03-22T13:33:01.597Z,7.47
2019-03-22T13:35:30.232Z,6.53
2019-03-22T13:37:59.778Z,7.80
2019-03-22T13:40:28.413Z,7.00
2019-03-22T13:42:56.930Z,6.43
2019-03-22T13:45:25.489Z,6.80
2019-03-22T13:47:54.008Z,7.60
2019-03-22T13:50:22.714Z,6.87
2019-03-22T13:52:51.371Z,7.77
2019-03-22T13:55:20.015Z,7.60
2019-03-22T13:57:48.597Z,7.70
2019-03-22T14:00:18.634Z,6.17
2019-03-22T14:02:47.218Z,6.50
2019-03-22T14:05:15.799Z,6.43
2019-03-22T14:07:44.398Z,6.30
2019-03-22T14:10:29.563Z,6.30
2019-03-22T14:13:01.813Z,6.37
2019-03-22T14:15:30.426Z,6.57
2019-03-22T14:17:59.178Z,6.40
2019-03-22T14:20:27.742Z,6.60
2019-03-22T14:22:56.407Z,6.23
2019-03-22T14:25:26.031Z,5.83
2019-03-22T14:27:54.625Z,6.50
2019-03-22T14:30:23.258Z,6.30
2019-03-22T14:32:51.785Z,6.90
2019-03-22T14:35:21.816Z,7.43
2019-03-22T14:37:50.405Z,6.30
2019-03-22T14:40:18.981Z,6.10
2019-03-22T14:42:47.570Z,6.33
2019-03-22T14:45:16.220Z,6.37
2019-03-22T14:47:44.812Z,5.80
2019-03-22T14:50:13.506Z,6.53
2019-03-22T14:52:42.102Z,6.03
2019-03-22T14:55:10.736Z,5.67
2019-03-22T14:57:48.076Z,6.67
2019-03-22T15:00:12.078Z,6.20
2019-03-22T15:02:40.672Z,6.40
2019-03-22T15:05:10.186Z,6.90
2019-03-22T15:07:38.778Z,6.77
2019-03-22T15:10:11.553Z,6.00
2019-03-22T15:12:40.148Z,5.33
2019-03-22T15:15:18.014Z,6.80
2019-03-22T15:17:48.195Z,6.17
2019-03-22T15:20:33.426Z,5.53
2019-03-22T15:23:15.671Z,5.97
2019-03-22T15:26:02.231Z,6.63
2019-03-22T15:28:59.234Z,6.60
2019-03-22T15:31:29.497Z,6.07
2019-03-22T15:34:04.706Z,6.40
2019-03-22T15:36:41.490Z,6.07
2019-03-22T15:39:24.097Z,7.23
2019-03-22T15:41:53.509Z,6.50
2019-03-22T15:46:50.598Z,6.10
2019-03-22T15:49:19.129Z,6.83
2019-03-22T15:51:48.857Z,6.50
2019-03-22T15:54:17.534Z,5.53
2019-03-22T15:56:46.151Z,6.40
2019-03-22T15:59:15.039Z,6.73
2019-03-22T16:01:43.608Z,7.30
2019-03-22T16:04:12.834Z,6.87
2019-03-22T16:06:41.403Z,7.50
2019-03-22T16:09:10.068Z,6.87
2019-03-22T16:11:38.630Z,6.33
2019-03-22T16:14:07.293Z,6.77
2019-03-22T16:16:37.674Z,6.47
2019-03-22T16:19:06.264Z,5.80
2019-03-22T16:21:34.829Z,6.47
2019-03-22T16:24:03.417Z,6.73
2019-03-22T16:26:31.968Z,6.60
2019-03-22T16:29:02.214Z,6.70
2019-03-22T16:31:31.962Z,7.23
2019-03-22T16:34:01.369Z,6.23
2019-03-22T16:36:31.582Z,6.57
2019-03-22T16:39:00.174Z,6.67
2019-03-22T16:41:28.754Z,7.30
2019-03-22T16:43:57.346Z,6.80
2019-03-22T16:46:26.049Z,6.60
2019-03-22T16:48:54.565Z,6.17
2019-03-22T16:51:23.077Z,5.80
2019-03-22T16:53:51.658Z,6.20
2019-03-22T16:56:20.222Z,6.40
2019-03-22T16:58:48.878Z,6.77
2019-03-22T17:01:17.454Z,6.20
2019-03-22T17:03:46.033Z,6.90
2019-03-22T17:06:14.525Z,6.53
2019-03-22T17:08:43.189Z,6.10
2019-03-22T17:11:11.758Z,5.83
2019-03-22T17:13:41.429Z,6.13
2019-03-22T17:16:09.932Z,6.53
2019-03-22T17:18:38.514Z,5.80
2019-03-22T17:21:07.081Z,5.70
2019-03-22T17:23:35.670Z,6.43
2019-03-22T17:26:04.243Z,6.27
2019-03-22T17:28:32.735Z,5.83
2019-03-22T17:31:01.328Z,6.00
2019-03-22T17:33:29.957Z,6.60
2019-03-22T17:35:58.475Z,6.10
2019-03-22T17:38:27.044Z,6.43
2019-03-22T17:40:55.705Z,8.53
2019-03-22T17:43:24.270Z,7.83
2019-03-22T17:45:52.790Z,8.47
2019-03-22T17:48:21.283Z,7.80
2019-03-22T17:50:49.871Z,7.20
2019-03-22T17:53:18.454Z,6.83
2019-03-22T17:55:47.111Z,7.77
2019-03-22T17:58:15.682Z,7.17
2019-03-22T18:00:45.137Z,7.73
2019-03-22T18:03:13.639Z,7.33
2019-03-22T18:05:42.226Z,6.70
2019-03-22T18:08:10.721Z,7.50
2019-03-22T18:10:39.311Z,7.77
2019-03-22T18:13:07.955Z,7.40
2019-03-22T18:15:36.550Z,7.33
2019-03-22T18:18:05.109Z,7.57
2019-03-22T18:20:33.634Z,6.53
2019-03-22T18:23:02.136Z,7.60
2019-03-22T18:25:31.476Z,7.60
2019-03-22T18:28:00.034Z,7.00
2019-03-22T18:30:28.626Z,7.13
2019-03-22T18:32:57.123Z,6.70
2019-03-22T18:35:25.639Z,7.77
2019-03-22T18:37:54.206Z,8.47
2019-03-22T18:40:22.794Z,9.73
2019-03-22T18:42:51.298Z,8.03
2019-03-22T18:45:19.926Z,8.53
2019-03-22T18:47:48.490Z,9.43
2019-03-22T18:50:17.086Z,8.60
2019-03-22T18:52:45.664Z,8.40
2019-03-22T18:55:14.387Z,8.87
2019-03-22T18:57:42.883Z,8.50
2019-03-22T19:00:16.718Z,8.47
2019-03-22T19:02:45.301Z,8.20
2019-03-22T19:05:14.417Z,7.37
2019-03-22T19:07:42.989Z,7.97
2019-03-22T19:10:13.826Z,8.07
2019-03-22T19:12:42.476Z,8.60
2019-03-22T19:15:12.910Z,8.63
2019-03-22T19:17:41.501Z,8.53
2019-03-22T19:20:15.106Z,7.60
2019-03-22T19:22:43.733Z,8.40
2019-03-22T19:25:14.399Z,9.03
2019-03-22T19:27:42.808Z,8.60
2019-03-22T19:30:14.198Z,9.07
2019-03-22T19:32:42.841Z,8.93
2019-03-22T19:35:11.971Z,8.70
2019-03-22T19:37:40.609Z,8.57
2019-03-22T19:40:11.536Z,9.43
2019-03-22T19:42:40.109Z,9.23
2019-03-22T19:45:10.550Z,8.90
2019-03-22T19:47:39.270Z,10.70
2019-03-22T19:50:09.894Z,10.57
2019-03-22T19:52:38.470Z,14.43
2019-03-22T19:55:09.605Z,11.30
2019-03-22T19:57:38.355Z,11.57
2019-03-22T20:00:16.743Z,11.57
2019-03-22T20:02:45.318Z,13.13
2019-03-22T20:05:28.374Z,11.27
2019-03-22T20:07:57.571Z,11.47
2019-03-22T20:10:26.163Z,11.70
2019-03-22T20:12:54.748Z,13.50
2019-03-22T20:15:23.371Z,12.33
2019-03-22T20:17:51.942Z,12.33
2019-03-22T20:20:20.581Z,13.87
2019-03-22T20:22:49.106Z,13.70
2019-03-22T20:25:17.688Z,14.30
2019-03-22T20:27:46.411Z,15.17
2019-03-22T20:30:17.287Z,15.43
2019-03-22T20:32:46.003Z,15.37
2019-03-22T20:35:16.698Z,15.63
2019-03-22T20:37:45.040Z,15.27
2019-03-22T20:40:18.347Z,15.60
2019-03-22T20:42:48.385Z,14.60
2019-03-22T20:45:23.946Z,15.43
2019-03-22T20:47:47.386Z,14.23
2019-03-22T20:50:16.120Z,13.87
2019-03-22T20:52:44.771Z,14.70
2019-03-22T20:55:13.678Z,14.90
2019-03-22T20:57:42.278Z,16.13
2019-03-22T21:00:13.162Z,17.60
2019-03-22T21:02:41.694Z,17.73
2019-03-22T21:05:10.622Z,16.60
2019-03-22T21:07:39.274Z,16.33
2019-03-22T21:10:09.039Z,16.40
2019-03-22T21:12:37.695Z,17.33
2019-03-22T21:15:07.511Z,16.37
2019-03-22T21:17:36.104Z,17.30
2019-03-22T21:20:10.385Z,21.37
2019-03-22T21:22:40.330Z,23.47
2019-03-22T21:25:11.372Z,24.93
2019-03-22T21:27:39.954Z,26.27
2019-03-22T21:30:11.523Z,23.73
2019-03-22T21:32:45.549Z,24.50
2019-03-22T21:35:21.893Z,26.80
2019-03-22T21:37:41.921Z,26.87
2019-03-22T21:40:11.273Z,26.60
2019-03-22T21:42:39.856Z,24.90
2019-03-22T21:45:10.057Z,25.57
2019-03-22T21:47:38.643Z,24.20
2019-03-22T21:50:08.241Z,23.27
2019-03-22T21:52:36.829Z,22.60
2019-03-22T21:55:07.068Z,21.87
2019-03-22T21:57:35.752Z,21.10
2019-03-22T22:00:06.821Z,20.27
2019-03-22T22:02:36.218Z,20.27
2019-03-22T22:05:06.625Z,18.90
2019-03-22T22:07:35.140Z,18.93
2019-03-22T22:10:08.549Z,18.70
2019-03-22T22:12:38.374Z,17.43
2019-03-22T22:15:11.994Z,17.73
2019-03-22T22:17:42.045Z,17.33
2019-03-22T22:20:11.613Z,17.13
2019-03-22T22:22:41.278Z,17.37
2019-03-22T22:25:09.975Z,17.67
2019-03-22T22:27:38.634Z,16.83
2019-03-22T22:30:11.066Z,15.67
2019-03-22T22:32:39.723Z,16.47
2019-03-22T22:35:09.332Z,16.03
2019-03-22T22:37:37.987Z,17.53
2019-03-22T22:40:11.185Z,17.90
2019-03-22T22:42:40.914Z,17.20
2019-03-22T22:45:11.384Z,17.00
2019-03-22T22:47:40.215Z,18.10
2019-03-22T22:50:12.197Z,17.17
2019-03-22T22:52:42.318Z,17.13
2019-03-22T22:55:11.031Z,17.33
2019-03-22T22:57:39.614Z,17.70
2019-03-22T23:00:13.916Z,18.10
2019-03-22T23:02:42.902Z,17.87
2019-03-22T23:05:11.607Z,17.83
2019-03-22T23:07:40.469Z,18.17
2019-03-22T23:10:09.279Z,18.00
2019-03-22T23:12:37.863Z,18.47
2019-03-22T23:15:07.573Z,18.70
2019-03-22T23:17:36.233Z,20.37
2019-03-22T23:20:07.221Z,21.43
2019-03-22T23:22:35.738Z,19.43
2019-03-22T23:25:08.303Z,19.97
2019-03-22T23:27:37.418Z,20.97
2019-03-22T23:30:07.626Z,21.63
2019-03-22T23:32:36.286Z,20.90
2019-03-22T23:35:06.793Z,19.20
2019-03-22T23:37:35.391Z,16.27
2019-03-22T23:40:07.826Z,16.97
2019-03-22T23:42:36.414Z,17.00
2019-03-22T23:45:09.682Z,17.93
2019-03-22T23:47:38.199Z,16.70
2019-03-22T23:50:08.666Z,16.43
2019-03-22T23:52:37.259Z,16.33
2019-03-22T23:55:07.269Z,16.70
2019-03-22T23:57:35.857Z,16.90
